sensor_id;sensor_type;location;lat;lon;timestamp;P1;durP1;ratioP1;P2;durP2;ratioP2
80536;SDS011;69867;47.074;15.404;2023-07-16T00:00:38;9.68;;;5.95;;
80536;SDS011;69867;47.074;15.404;2023-07-16T00:03:04;8.38;;;5.75;;
80536;SDS011;69867;47.074;15.404;2023-07-16T00:05:29;9.80;;;6.20;;
80536;SDS011;69867;47.074;15.404;2023-07-16T00:07:54;12.20;;;6.55;;
80536;SDS011;69867;47.074;15.404;2023-07-16T00:10:19;10.52;;;5.75;;
80536;SDS011;69867;47.074;15.404;2023-07-16T00:12:45;9.43;;;6.35;;
80536;SDS011;69867;47.074;15.404;2023-07-16T00:15:10;9.15;;;6.43;;
80536;SDS011;69867;47.074;15.404;2023-07-16T00:17:36;9.82;;;6.35;;
80536;SDS011;69867;47.074;15.404;2023-07-16T00:20:02;8.50;;;6.20;;
80536;SDS011;69867;47.074;15.404;2023-07-16T00:22:27;9.27;;;6.05;;
80536;SDS011;69867;47.074;15.404;2023-07-16T00:24:53;7.07;;;5.95;;
80536;SDS011;69867;47.074;15.404;2023-07-16T00:27:18;8.20;;;5.70;;
80536;SDS011;69867;47.074;15.404;2023-07-16T00:29:43;9.32;;;6.35;;
80536;SDS011;69867;47.074;15.404;2023-07-16T00:32:09;9.18;;;6.55;;
80536;SDS011;69867;47.074;15.404;2023-07-16T00:34:34;10.50;;;6.32;;
80536;SDS011;69867;47.074;15.404;2023-07-16T00:36:59;9.82;;;5.90;;
80536;SDS011;69867;47.074;15.404;2023-07-16T00:39:25;9.63;;;6.47;;
80536;SDS011;69867;47.074;15.404;2023-07-16T00:41:50;9.45;;;6.53;;
80536;SDS011;69867;47.074;15.404;2023-07-16T00:44:15;9.90;;;6.22;;
80536;SDS011;69867;47.074;15.404;2023-07-16T00:46:41;10.32;;;6.60;;
80536;SDS011;69867;47.074;15.404;2023-07-16T00:49:06;9.50;;;6.43;;
80536;SDS011;69867;47.074;15.404;2023-07-16T00:51:31;9.30;;;5.95;;
80536;SDS011;69867;47.074;15.404;2023-07-16T00:53:57;11.05;;;6.72;;
80536;SDS011;69867;47.074;15.404;2023-07-16T00:56:22;10.52;;;6.60;;
80536;SDS011;69867;47.074;15.404;2023-07-16T00:58:48;8.50;;;5.95;;
80536;SDS011;69867;47.074;15.404;2023-07-16T01:01:13;7.65;;;5.82;;
80536;SDS011;69867;47.074;15.404;2023-07-16T01:03:38;12.27;;;6.65;;
80536;SDS011;69867;47.074;15.404;2023-07-16T01:06:07;10.20;;;6.95;;
80536;SDS011;69867;47.074;15.404;2023-07-16T01:08:45;8.38;;;6.88;;
80536;SDS011;69867;47.074;15.404;2023-07-16T01:11:16;9.25;;;6.40;;
80536;SDS011;69867;47.074;15.404;2023-07-16T01:13:42;10.15;;;6.72;;
80536;SDS011;69867;47.074;15.404;2023-07-16T01:16:17;11.30;;;7.18;;
80536;SDS011;69867;47.074;15.404;2023-07-16T01:18:46;10.65;;;6.47;;
80536;SDS011;69867;47.074;15.404;2023-07-16T01:21:12;9.88;;;6.35;;
80536;SDS011;69867;47.074;15.404;2023-07-16T01:29:28;11.48;;;6.43;;
80536;SDS011;69867;47.074;15.404;2023-07-16T01:31:53;13.43;;;7.68;;
80536;SDS011;69867;47.074;15.404;2023-07-16T01:34:21;10.02;;;7.35;;
80536;SDS011;69867;47.074;15.404;2023-07-16T01:36:48;9.60;;;6.95;;
80536;SDS011;69867;47.074;15.404;2023-07-16T01:39:14;9.57;;;6.72;;
80536;SDS011;69867;47.074;15.404;2023-07-16T01:41:40;10.43;;;6.25;;
80536;SDS011;69867;47.074;15.404;2023-07-16T01:44:06;10.00;;;6.55;;
80536;SDS011;69867;47.074;15.404;2023-07-16T01:46:31;10.07;;;6.40;;
80536;SDS011;69867;47.074;15.404;2023-07-16T01:48:57;8.77;;;6.60;;
80536;SDS011;69867;47.074;15.404;2023-07-16T01:51:22;10.68;;;6.43;;
80536;SDS011;69867;47.074;15.404;2023-07-16T01:53:47;10.80;;;7.53;;
80536;SDS011;69867;47.074;15.404;2023-07-16T01:56:13;10.43;;;6.70;;
80536;SDS011;69867;47.074;15.404;2023-07-16T01:58:38;13.20;;;7.32;;
80536;SDS011;69867;47.074;15.404;2023-07-16T02:01:03;10.95;;;7.00;;
80536;SDS011;69867;47.074;15.404;2023-07-16T02:03:29;9.80;;;6.57;;
80536;SDS011;69867;47.074;15.404;2023-07-16T02:05:54;9.85;;;6.97;;
80536;SDS011;69867;47.074;15.404;2023-07-16T02:08:20;13.43;;;7.75;;
80536;SDS011;69867;47.074;15.404;2023-07-16T02:10:47;11.95;;;7.18;;
80536;SDS011;69867;47.074;15.404;2023-07-16T02:13:13;10.15;;;6.88;;
80536;SDS011;69867;47.074;15.404;2023-07-16T02:15:38;11.48;;;7.07;;
80536;SDS011;69867;47.074;15.404;2023-07-16T02:18:04;11.73;;;7.57;;
80536;SDS011;69867;47.074;15.404;2023-07-16T02:20:29;10.32;;;6.95;;
80536;SDS011;69867;47.074;15.404;2023-07-16T02:22:54;8.15;;;6.75;;
80536;SDS011;69867;47.074;15.404;2023-07-16T02:25:20;9.18;;;7.00;;
80536;SDS011;69867;47.074;15.404;2023-07-16T02:27:45;10.93;;;6.88;;
80536;SDS011;69867;47.074;15.404;2023-07-16T02:30:10;9.88;;;6.80;;
80536;SDS011;69867;47.074;15.404;2023-07-16T02:32:36;9.77;;;7.07;;
80536;SDS011;69867;47.074;15.404;2023-07-16T02:35:01;12.00;;;7.60;;
80536;SDS011;69867;47.074;15.404;2023-07-16T02:37:27;10.10;;;7.50;;
80536;SDS011;69867;47.074;15.404;2023-07-16T02:39:52;11.70;;;7.25;;
80536;SDS011;69867;47.074;15.404;2023-07-16T02:42:18;10.50;;;7.13;;
80536;SDS011;69867;47.074;15.404;2023-07-16T02:44:43;10.13;;;6.80;;
80536;SDS011;69867;47.074;15.404;2023-07-16T02:47:08;12.25;;;7.22;;
80536;SDS011;69867;47.074;15.404;2023-07-16T02:49:34;9.73;;;7.25;;
80536;SDS011;69867;47.074;15.404;2023-07-16T02:51:59;9.18;;;6.28;;
80536;SDS011;69867;47.074;15.404;2023-07-16T02:54:25;10.05;;;7.13;;
80536;SDS011;69867;47.074;15.404;2023-07-16T02:56:50;11.15;;;7.38;;
80536;SDS011;69867;47.074;15.404;2023-07-16T02:59:15;10.45;;;7.32;;
80536;SDS011;69867;47.074;15.404;2023-07-16T03:01:41;10.48;;;7.32;;
80536;SDS011;69867;47.074;15.404;2023-07-16T03:04:06;9.73;;;7.15;;
80536;SDS011;69867;47.074;15.404;2023-07-16T03:06:31;12.15;;;6.70;;
80536;SDS011;69867;47.074;15.404;2023-07-16T03:08:56;10.95;;;7.18;;
80536;SDS011;69867;47.074;15.404;2023-07-16T03:11:22;12.38;;;7.63;;
80536;SDS011;69867;47.074;15.404;2023-07-16T03:13:47;12.98;;;7.25;;
80536;SDS011;69867;47.074;15.404;2023-07-16T03:16:12;11.63;;;6.93;;
80536;SDS011;69867;47.074;15.404;2023-07-16T03:18:38;10.30;;;6.72;;
80536;SDS011;69867;47.074;15.404;2023-07-16T03:21:03;9.60;;;7.15;;
80536;SDS011;69867;47.074;15.404;2023-07-16T03:23:29;11.50;;;7.05;;
80536;SDS011;69867;47.074;15.404;2023-07-16T03:25:54;10.32;;;7.20;;
80536;SDS011;69867;47.074;15.404;2023-07-16T03:28:19;9.40;;;7.15;;
80536;SDS011;69867;47.074;15.404;2023-07-16T03:30:48;11.20;;;6.38;;
80536;SDS011;69867;47.074;15.404;2023-07-16T03:33:14;9.05;;;6.32;;
80536;SDS011;69867;47.074;15.404;2023-07-16T03:35:42;13.82;;;6.03;;
80536;SDS011;69867;47.074;15.404;2023-07-16T03:38:08;12.13;;;7.05;;
80536;SDS011;69867;47.074;15.404;2023-07-16T03:40:33;11.55;;;7.05;;
80536;SDS011;69867;47.074;15.404;2023-07-16T03:42:58;12.40;;;7.07;;
80536;SDS011;69867;47.074;15.404;2023-07-16T03:45:24;8.85;;;6.18;;
80536;SDS011;69867;47.074;15.404;2023-07-16T03:47:49;9.77;;;6.55;;
80536;SDS011;69867;47.074;15.404;2023-07-16T03:50:14;11.70;;;7.13;;
80536;SDS011;69867;47.074;15.404;2023-07-16T03:52:40;10.15;;;6.47;;
80536;SDS011;69867;47.074;15.404;2023-07-16T03:55:05;12.35;;;6.90;;
80536;SDS011;69867;47.074;15.404;2023-07-16T03:57:31;10.75;;;5.93;;
80536;SDS011;69867;47.074;15.404;2023-07-16T03:59:56;10.80;;;6.75;;
80536;SDS011;69867;47.074;15.404;2023-07-16T04:02:22;9.73;;;6.72;;
80536;SDS011;69867;47.074;15.404;2023-07-16T04:04:48;13.07;;;7.25;;
80536;SDS011;69867;47.074;15.404;2023-07-16T04:07:13;10.73;;;6.07;;
80536;SDS011;69867;47.074;15.404;2023-07-16T04:09:39;8.48;;;6.47;;
80536;SDS011;69867;47.074;15.404;2023-07-16T04:12:05;10.32;;;6.90;;
80536;SDS011;69867;47.074;15.404;2023-07-16T04:14:31;11.23;;;6.97;;
80536;SDS011;69867;47.074;15.404;2023-07-16T04:16:57;11.10;;;6.80;;
80536;SDS011;69867;47.074;15.404;2023-07-16T04:19:22;9.73;;;6.05;;
80536;SDS011;69867;47.074;15.404;2023-07-16T04:21:48;9.35;;;6.13;;
80536;SDS011;69867;47.074;15.404;2023-07-16T04:24:13;8.85;;;6.32;;
80536;SDS011;69867;47.074;15.404;2023-07-16T04:26:38;10.23;;;6.80;;
80536;SDS011;69867;47.074;15.404;2023-07-16T04:29:04;14.70;;;6.97;;
80536;SDS011;69867;47.074;15.404;2023-07-16T04:31:29;8.00;;;6.18;;
80536;SDS011;69867;47.074;15.404;2023-07-16T04:33:54;9.75;;;6.00;;
80536;SDS011;69867;47.074;15.404;2023-07-16T04:36:20;10.52;;;6.32;;
80536;SDS011;69867;47.074;15.404;2023-07-16T04:38:45;10.57;;;6.95;;
80536;SDS011;69867;47.074;15.404;2023-07-16T04:41:10;9.15;;;6.07;;
80536;SDS011;69867;47.074;15.404;2023-07-16T04:43:35;9.50;;;6.07;;
80536;SDS011;69867;47.074;15.404;2023-07-16T04:46:01;8.25;;;5.53;;
80536;SDS011;69867;47.074;15.404;2023-07-16T04:48:26;9.88;;;5.97;;
80536;SDS011;69867;47.074;15.404;2023-07-16T04:50:52;10.13;;;5.80;;
80536;SDS011;69867;47.074;15.404;2023-07-16T04:53:17;7.88;;;5.80;;
80536;SDS011;69867;47.074;15.404;2023-07-16T04:55:42;10.07;;;5.68;;
80536;SDS011;69867;47.074;15.404;2023-07-16T04:58:09;8.18;;;5.68;;
80536;SDS011;69867;47.074;15.404;2023-07-16T05:00:36;8.82;;;5.28;;
80536;SDS011;69867;47.074;15.404;2023-07-16T05:03:01;6.72;;;4.97;;
80536;SDS011;69867;47.074;15.404;2023-07-16T05:05:26;7.65;;;5.20;;
80536;SDS011;69867;47.074;15.404;2023-07-16T05:07:52;8.05;;;5.40;;
80536;SDS011;69867;47.074;15.404;2023-07-16T05:10:17;6.28;;;5.32;;
80536;SDS011;69867;47.074;15.404;2023-07-16T05:12:42;8.88;;;5.70;;
80536;SDS011;69867;47.074;15.404;2023-07-16T05:15:08;6.72;;;4.88;;
80536;SDS011;69867;47.074;15.404;2023-07-16T05:17:34;8.63;;;5.03;;
80536;SDS011;69867;47.074;15.404;2023-07-16T05:19:59;6.85;;;4.78;;
80536;SDS011;69867;47.074;15.404;2023-07-16T05:22:24;6.03;;;4.97;;
80536;SDS011;69867;47.074;15.404;2023-07-16T05:24:50;9.07;;;5.22;;
80536;SDS011;69867;47.074;15.404;2023-07-16T05:27:15;8.40;;;5.30;;
80536;SDS011;69867;47.074;15.404;2023-07-16T05:29:40;9.43;;;5.68;;
80536;SDS011;69867;47.074;15.404;2023-07-16T05:32:06;7.43;;;5.75;;
80536;SDS011;69867;47.074;15.404;2023-07-16T05:34:31;6.30;;;4.50;;
80536;SDS011;69867;47.074;15.404;2023-07-16T05:36:57;7.35;;;5.43;;
80536;SDS011;69867;47.074;15.404;2023-07-16T05:39:22;7.30;;;5.45;;
80536;SDS011;69867;47.074;15.404;2023-07-16T05:41:47;7.55;;;5.25;;
80536;SDS011;69867;47.074;15.404;2023-07-16T05:44:13;6.95;;;5.05;;
80536;SDS011;69867;47.074;15.404;2023-07-16T05:46:38;6.28;;;4.38;;
80536;SDS011;69867;47.074;15.404;2023-07-16T05:49:04;6.20;;;4.85;;
80536;SDS011;69867;47.074;15.404;2023-07-16T05:51:29;7.68;;;5.03;;
80536;SDS011;69867;47.074;15.404;2023-07-16T05:53:54;10.07;;;5.07;;
80536;SDS011;69867;47.074;15.404;2023-07-16T05:56:19;7.60;;;5.28;;
80536;SDS011;69867;47.074;15.404;2023-07-16T05:58:45;7.47;;;4.78;;
80536;SDS011;69867;47.074;15.404;2023-07-16T06:01:10;8.10;;;4.97;;
80536;SDS011;69867;47.074;15.404;2023-07-16T06:03:36;7.53;;;5.22;;
80536;SDS011;69867;47.074;15.404;2023-07-16T06:06:01;7.97;;;4.80;;
80536;SDS011;69867;47.074;15.404;2023-07-16T06:08:26;7.43;;;4.82;;
80536;SDS011;69867;47.074;15.404;2023-07-16T06:10:52;7.07;;;4.80;;
80536;SDS011;69867;47.074;15.404;2023-07-16T06:13:17;7.47;;;5.68;;
80536;SDS011;69867;47.074;15.404;2023-07-16T06:15:43;7.63;;;5.47;;
80536;SDS011;69867;47.074;15.404;2023-07-16T06:18:08;6.47;;;5.43;;
80536;SDS011;69867;47.074;15.404;2023-07-16T06:20:34;6.28;;;4.90;;
80536;SDS011;69867;47.074;15.404;2023-07-16T06:23:00;7.88;;;5.40;;
80536;SDS011;69867;47.074;15.404;2023-07-16T06:25:25;6.22;;;4.55;;
80536;SDS011;69867;47.074;15.404;2023-07-16T06:27:50;7.22;;;5.22;;
80536;SDS011;69867;47.074;15.404;2023-07-16T06:30:15;9.40;;;5.78;;
80536;SDS011;69867;47.074;15.404;2023-07-16T06:32:41;8.13;;;5.43;;
80536;SDS011;69867;47.074;15.404;2023-07-16T06:35:07;7.25;;;5.63;;
80536;SDS011;69867;47.074;15.404;2023-07-16T06:37:33;5.97;;;4.45;;
80536;SDS011;69867;47.074;15.404;2023-07-16T06:39:58;7.50;;;4.63;;
80536;SDS011;69867;47.074;15.404;2023-07-16T06:42:24;7.55;;;4.60;;
80536;SDS011;69867;47.074;15.404;2023-07-16T06:44:49;8.35;;;4.97;;
80536;SDS011;69867;47.074;15.404;2023-07-16T06:47:14;6.97;;;5.05;;
80536;SDS011;69867;47.074;15.404;2023-07-16T06:49:40;7.20;;;5.03;;
80536;SDS011;69867;47.074;15.404;2023-07-16T06:52:05;8.10;;;4.63;;
80536;SDS011;69867;47.074;15.404;2023-07-16T06:54:31;7.00;;;3.67;;
80536;SDS011;69867;47.074;15.404;2023-07-16T06:56:56;6.07;;;4.15;;
80536;SDS011;69867;47.074;15.404;2023-07-16T06:59:21;4.38;;;3.28;;
80536;SDS011;69867;47.074;15.404;2023-07-16T07:01:47;7.85;;;3.55;;
80536;SDS011;69867;47.074;15.404;2023-07-16T07:04:12;4.70;;;3.17;;
80536;SDS011;69867;47.074;15.404;2023-07-16T07:06:37;4.50;;;3.03;;
80536;SDS011;69867;47.074;15.404;2023-07-16T07:09:03;4.68;;;2.97;;
80536;SDS011;69867;47.074;15.404;2023-07-16T07:11:28;6.07;;;3.53;;
80536;SDS011;69867;47.074;15.404;2023-07-16T07:13:54;4.53;;;2.67;;
80536;SDS011;69867;47.074;15.404;2023-07-16T07:16:19;5.30;;;3.15;;
80536;SDS011;69867;47.074;15.404;2023-07-16T07:18:44;4.10;;;2.75;;
80536;SDS011;69867;47.074;15.404;2023-07-16T07:21:10;4.20;;;2.78;;
80536;SDS011;69867;47.074;15.404;2023-07-16T07:23:35;3.83;;;2.42;;
80536;SDS011;69867;47.074;15.404;2023-07-16T07:26:01;5.50;;;3.50;;
80536;SDS011;69867;47.074;15.404;2023-07-16T07:28:26;6.15;;;2.67;;
80536;SDS011;69867;47.074;15.404;2023-07-16T07:30:52;6.65;;;3.15;;
80536;SDS011;69867;47.074;15.404;2023-07-16T07:33:17;4.82;;;2.63;;
80536;SDS011;69867;47.074;15.404;2023-07-16T07:35:42;4.85;;;2.70;;
80536;SDS011;69867;47.074;15.404;2023-07-16T07:38:08;4.82;;;3.05;;
80536;SDS011;69867;47.074;15.404;2023-07-16T07:40:33;5.60;;;2.90;;
80536;SDS011;69867;47.074;15.404;2023-07-16T07:42:59;4.93;;;2.92;;
80536;SDS011;69867;47.074;15.404;2023-07-16T07:45:24;8.23;;;3.70;;
80536;SDS011;69867;47.074;15.404;2023-07-16T07:47:51;5.22;;;3.13;;
80536;SDS011;69867;47.074;15.404;2023-07-16T07:50:16;4.40;;;2.72;;
80536;SDS011;69867;47.074;15.404;2023-07-16T07:52:41;4.55;;;2.90;;
80536;SDS011;69867;47.074;15.404;2023-07-16T07:55:07;4.80;;;2.75;;
80536;SDS011;69867;47.074;15.404;2023-07-16T07:57:32;6.63;;;3.25;;
80536;SDS011;69867;47.074;15.404;2023-07-16T07:59:57;5.32;;;2.95;;
80536;SDS011;69867;47.074;15.404;2023-07-16T08:02:26;4.28;;;3.28;;
80536;SDS011;69867;47.074;15.404;2023-07-16T08:04:52;3.92;;;2.65;;
80536;SDS011;69867;47.074;15.404;2023-07-16T08:07:18;6.43;;;3.40;;
80536;SDS011;69867;47.074;15.404;2023-07-16T08:09:44;6.35;;;3.80;;
80536;SDS011;69867;47.074;15.404;2023-07-16T08:12:10;5.55;;;3.38;;
80536;SDS011;69867;47.074;15.404;2023-07-16T08:14:35;4.45;;;3.22;;
80536;SDS011;69867;47.074;15.404;2023-07-16T08:17:01;4.57;;;2.95;;
80536;SDS011;69867;47.074;15.404;2023-07-16T08:19:26;4.38;;;3.40;;
80536;SDS011;69867;47.074;15.404;2023-07-16T08:21:51;6.65;;;3.55;;
80536;SDS011;69867;47.074;15.404;2023-07-16T08:24:17;4.75;;;3.33;;
80536;SDS011;69867;47.074;15.404;2023-07-16T08:26:42;9.20;;;3.83;;
80536;SDS011;69867;47.074;15.404;2023-07-16T08:29:08;5.00;;;3.45;;
80536;SDS011;69867;47.074;15.404;2023-07-16T08:31:33;6.05;;;3.45;;
80536;SDS011;69867;47.074;15.404;2023-07-16T08:33:58;8.02;;;3.55;;
80536;SDS011;69867;47.074;15.404;2023-07-16T08:36:24;6.32;;;3.38;;
80536;SDS011;69867;47.074;15.404;2023-07-16T08:38:49;5.68;;;3.65;;
80536;SDS011;69867;47.074;15.404;2023-07-16T08:41:15;7.85;;;3.90;;
80536;SDS011;69867;47.074;15.404;2023-07-16T08:43:40;5.00;;;2.97;;
80536;SDS011;69867;47.074;15.404;2023-07-16T08:46:07;7.90;;;3.38;;
80536;SDS011;69867;47.074;15.404;2023-07-16T08:48:33;7.90;;;3.95;;
80536;SDS011;69867;47.074;15.404;2023-07-16T08:50:59;6.47;;;3.35;;
80536;SDS011;69867;47.074;15.404;2023-07-16T08:53:27;5.63;;;3.35;;
80536;SDS011;69867;47.074;15.404;2023-07-16T08:55:52;5.57;;;3.83;;
80536;SDS011;69867;47.074;15.404;2023-07-16T08:58:18;5.40;;;3.33;;
80536;SDS011;69867;47.074;15.404;2023-07-16T09:00:45;5.13;;;3.47;;
80536;SDS011;69867;47.074;15.404;2023-07-16T09:03:14;6.10;;;3.85;;
80536;SDS011;69867;47.074;15.404;2023-07-16T09:05:39;8.20;;;3.85;;
80536;SDS011;69867;47.074;15.404;2023-07-16T09:08:05;6.78;;;3.97;;
80536;SDS011;69867;47.074;15.404;2023-07-16T09:10:30;4.38;;;3.38;;
80536;SDS011;69867;47.074;15.404;2023-07-16T09:12:57;4.30;;;3.10;;
80536;SDS011;69867;47.074;15.404;2023-07-16T09:15:23;5.07;;;3.28;;
80536;SDS011;69867;47.074;15.404;2023-07-16T09:17:49;5.00;;;3.20;;
80536;SDS011;69867;47.074;15.404;2023-07-16T09:20:15;6.18;;;3.90;;
80536;SDS011;69867;47.074;15.404;2023-07-16T09:22:41;5.40;;;3.72;;
80536;SDS011;69867;47.074;15.404;2023-07-16T09:25:07;6.80;;;3.85;;
80536;SDS011;69867;47.074;15.404;2023-07-16T09:27:33;5.32;;;3.60;;
80536;SDS011;69867;47.074;15.404;2023-07-16T09:29:58;7.13;;;3.70;;
80536;SDS011;69867;47.074;15.404;2023-07-16T09:32:32;5.60;;;3.50;;
80536;SDS011;69867;47.074;15.404;2023-07-16T09:34:58;5.75;;;3.47;;
80536;SDS011;69867;47.074;15.404;2023-07-16T09:37:23;5.90;;;3.20;;
80536;SDS011;69867;47.074;15.404;2023-07-16T09:39:49;4.28;;;3.00;;
80536;SDS011;69867;47.074;15.404;2023-07-16T09:42:14;5.70;;;3.72;;
80536;SDS011;69867;47.074;15.404;2023-07-16T09:44:43;5.72;;;3.95;;
80536;SDS011;69867;47.074;15.404;2023-07-16T09:47:09;6.35;;;3.90;;
80536;SDS011;69867;47.074;15.404;2023-07-16T09:49:34;7.53;;;4.05;;
80536;SDS011;69867;47.074;15.404;2023-07-16T09:52:01;5.15;;;3.33;;
80536;SDS011;69867;47.074;15.404;2023-07-16T09:54:27;5.45;;;3.53;;
80536;SDS011;69867;47.074;15.404;2023-07-16T09:56:57;7.40;;;3.70;;
80536;SDS011;69867;47.074;15.404;2023-07-16T09:59:27;7.30;;;3.90;;
80536;SDS011;69867;47.074;15.404;2023-07-16T10:01:55;4.43;;;3.50;;
80536;SDS011;69867;47.074;15.404;2023-07-16T10:04:21;5.07;;;3.38;;
80536;SDS011;69867;47.074;15.404;2023-07-16T10:09:30;6.15;;;3.63;;
80536;SDS011;69867;47.074;15.404;2023-07-16T10:14:48;6.05;;;4.35;;
80536;SDS011;69867;47.074;15.404;2023-07-16T10:17:19;7.05;;;3.58;;
80536;SDS011;69867;47.074;15.404;2023-07-16T10:20:07;5.95;;;4.03;;
80536;SDS011;69867;47.074;15.404;2023-07-16T10:25:07;6.22;;;3.92;;
80536;SDS011;69867;47.074;15.404;2023-07-16T10:27:42;6.43;;;3.78;;
80536;SDS011;69867;47.074;15.404;2023-07-16T10:30:09;6.72;;;4.13;;
80536;SDS011;69867;47.074;15.404;2023-07-16T10:32:34;5.82;;;3.75;;
80536;SDS011;69867;47.074;15.404;2023-07-16T10:35:00;5.63;;;3.90;;
80536;SDS011;69867;47.074;15.404;2023-07-16T10:37:26;7.38;;;4.50;;
80536;SDS011;69867;47.074;15.404;2023-07-16T10:39:55;6.72;;;4.10;;
80536;SDS011;69867;47.074;15.404;2023-07-16T10:42:22;5.68;;;4.07;;
80536;SDS011;69867;47.074;15.404;2023-07-16T10:44:49;6.80;;;4.45;;
80536;SDS011;69867;47.074;15.404;2023-07-16T10:47:19;7.03;;;4.70;;
80536;SDS011;69867;47.074;15.404;2023-07-16T10:49:48;9.40;;;5.18;;
80536;SDS011;69867;47.074;15.404;2023-07-16T10:52:14;6.25;;;4.28;;
80536;SDS011;69867;47.074;15.404;2023-07-16T10:54:40;6.60;;;4.82;;
80536;SDS011;69867;47.074;15.404;2023-07-16T10:57:06;6.20;;;4.20;;
80536;SDS011;69867;47.074;15.404;2023-07-16T10:59:31;6.20;;;4.03;;
80536;SDS011;69867;47.074;15.404;2023-07-16T11:01:59;6.10;;;4.43;;
80536;SDS011;69867;47.074;15.404;2023-07-16T11:04:32;5.43;;;4.15;;
80536;SDS011;69867;47.074;15.404;2023-07-16T11:06:58;6.50;;;4.50;;
80536;SDS011;69867;47.074;15.404;2023-07-16T11:09:24;8.32;;;4.57;;
80536;SDS011;69867;47.074;15.404;2023-07-16T11:11:49;6.55;;;4.65;;
80536;SDS011;69867;47.074;15.404;2023-07-16T11:14:14;6.20;;;4.38;;
80536;SDS011;69867;47.074;15.404;2023-07-16T11:16:39;6.93;;;4.60;;
80536;SDS011;69867;47.074;15.404;2023-07-16T11:19:05;7.30;;;4.90;;
80536;SDS011;69867;47.074;15.404;2023-07-16T11:21:34;7.68;;;5.05;;
80536;SDS011;69867;47.074;15.404;2023-07-16T11:24:07;8.38;;;5.07;;
80536;SDS011;69867;47.074;15.404;2023-07-16T11:26:34;7.93;;;5.43;;
80536;SDS011;69867;47.074;15.404;2023-07-16T11:28:59;7.85;;;4.93;;
80536;SDS011;69867;47.074;15.404;2023-07-16T11:31:24;9.35;;;5.50;;
80536;SDS011;69867;47.074;15.404;2023-07-16T11:33:50;7.78;;;5.03;;
80536;SDS011;69867;47.074;15.404;2023-07-16T11:36:16;8.38;;;5.53;;
80536;SDS011;69867;47.074;15.404;2023-07-16T11:38:44;8.77;;;7.53;;
80536;SDS011;69867;47.074;15.404;2023-07-16T11:41:10;10.52;;;6.82;;
80536;SDS011;69867;47.074;15.404;2023-07-16T11:43:35;8.15;;;5.78;;
80536;SDS011;69867;47.074;15.404;2023-07-16T11:46:02;8.95;;;5.63;;
80536;SDS011;69867;47.074;15.404;2023-07-16T11:48:28;6.28;;;4.65;;
80536;SDS011;69867;47.074;15.404;2023-07-16T11:50:53;6.13;;;4.40;;
80536;SDS011;69867;47.074;15.404;2023-07-16T11:53:18;6.07;;;4.68;;
80536;SDS011;69867;47.074;15.404;2023-07-16T11:55:44;7.55;;;4.93;;
80536;SDS011;69867;47.074;15.404;2023-07-16T11:58:09;9.15;;;5.25;;
80536;SDS011;69867;47.074;15.404;2023-07-16T12:00:35;7.07;;;5.45;;
80536;SDS011;69867;47.074;15.404;2023-07-16T12:03:00;8.65;;;5.00;;
80536;SDS011;69867;47.074;15.404;2023-07-16T12:05:25;5.43;;;4.32;;
80536;SDS011;69867;47.074;15.404;2023-07-16T12:07:51;7.25;;;4.50;;
80536;SDS011;69867;47.074;15.404;2023-07-16T12:10:16;7.00;;;5.07;;
80536;SDS011;69867;47.074;15.404;2023-07-16T12:12:45;8.27;;;4.82;;
80536;SDS011;69867;47.074;15.404;2023-07-16T12:15:10;5.35;;;4.68;;
80536;SDS011;69867;47.074;15.404;2023-07-16T12:17:35;6.28;;;5.10;;
80536;SDS011;69867;47.074;15.404;2023-07-16T12:20:01;6.63;;;5.10;;
80536;SDS011;69867;47.074;15.404;2023-07-16T12:22:28;7.50;;;5.72;;
80536;SDS011;69867;47.074;15.404;2023-07-16T12:24:53;8.73;;;4.90;;
80536;SDS011;69867;47.074;15.404;2023-07-16T12:27:18;8.05;;;5.95;;
80536;SDS011;69867;47.074;15.404;2023-07-16T12:29:44;9.63;;;5.70;;
80536;SDS011;69867;47.074;15.404;2023-07-16T12:32:09;7.03;;;5.30;;
80536;SDS011;69867;47.074;15.404;2023-07-16T12:34:35;6.75;;;4.93;;
80536;SDS011;69867;47.074;15.404;2023-07-16T12:37:01;6.78;;;4.43;;
80536;SDS011;69867;47.074;15.404;2023-07-16T12:39:26;7.32;;;5.03;;
80536;SDS011;69867;47.074;15.404;2023-07-16T12:41:51;6.15;;;5.28;;
80536;SDS011;69867;47.074;15.404;2023-07-16T12:44:17;6.53;;;5.22;;
80536;SDS011;69867;47.074;15.404;2023-07-16T12:46:42;6.75;;;4.85;;
80536;SDS011;69867;47.074;15.404;2023-07-16T12:49:08;6.65;;;5.40;;
80536;SDS011;69867;47.074;15.404;2023-07-16T12:51:33;10.23;;;6.13;;
80536;SDS011;69867;47.074;15.404;2023-07-16T12:53:58;9.27;;;5.38;;
80536;SDS011;69867;47.074;15.404;2023-07-16T12:56:24;6.15;;;4.57;;
80536;SDS011;69867;47.074;15.404;2023-07-16T12:58:49;6.25;;;4.57;;
80536;SDS011;69867;47.074;15.404;2023-07-16T13:01:14;8.38;;;4.43;;
80536;SDS011;69867;47.074;15.404;2023-07-16T13:03:40;6.40;;;4.72;;
80536;SDS011;69867;47.074;15.404;2023-07-16T13:06:23;9.35;;;5.57;;
80536;SDS011;69867;47.074;15.404;2023-07-16T13:08:48;6.13;;;4.65;;
80536;SDS011;69867;47.074;15.404;2023-07-16T13:11:14;7.00;;;5.40;;
80536;SDS011;69867;47.074;15.404;2023-07-16T13:13:39;7.22;;;4.70;;
80536;SDS011;69867;47.074;15.404;2023-07-16T13:16:07;7.03;;;4.57;;
80536;SDS011;69867;47.074;15.404;2023-07-16T13:18:32;7.28;;;4.90;;
80536;SDS011;69867;47.074;15.404;2023-07-16T13:20:58;7.43;;;4.75;;
80536;SDS011;69867;47.074;15.404;2023-07-16T13:23:23;6.35;;;4.35;;
80536;SDS011;69867;47.074;15.404;2023-07-16T13:25:51;6.18;;;4.53;;
80536;SDS011;69867;47.074;15.404;2023-07-16T13:28:17;7.47;;;5.13;;
80536;SDS011;69867;47.074;15.404;2023-07-16T13:30:42;6.45;;;4.72;;
80536;SDS011;69867;47.074;15.404;2023-07-16T13:33:11;8.35;;;4.35;;
80536;SDS011;69867;47.074;15.404;2023-07-16T13:35:36;7.18;;;5.05;;
80536;SDS011;69867;47.074;15.404;2023-07-16T13:38:02;8.45;;;4.88;;
80536;SDS011;69867;47.074;15.404;2023-07-16T13:40:27;6.55;;;4.93;;
80536;SDS011;69867;47.074;15.404;2023-07-16T13:42:53;7.45;;;4.65;;
80536;SDS011;69867;47.074;15.404;2023-07-16T13:45:18;5.50;;;4.53;;
80536;SDS011;69867;47.074;15.404;2023-07-16T13:47:43;6.82;;;4.85;;
80536;SDS011;69867;47.074;15.404;2023-07-16T13:50:09;6.43;;;5.00;;
80536;SDS011;69867;47.074;15.404;2023-07-16T13:52:34;7.60;;;5.15;;
80536;SDS011;69867;47.074;15.404;2023-07-16T13:55:00;6.63;;;5.18;;
80536;SDS011;69867;47.074;15.404;2023-07-16T13:57:25;7.95;;;5.78;;
80536;SDS011;69867;47.074;15.404;2023-07-16T13:59:51;6.63;;;5.20;;
80536;SDS011;69867;47.074;15.404;2023-07-16T14:02:16;8.70;;;5.13;;
80536;SDS011;69867;47.074;15.404;2023-07-16T14:04:42;6.65;;;4.85;;
80536;SDS011;69867;47.074;15.404;2023-07-16T14:07:07;6.25;;;5.22;;
80536;SDS011;69867;47.074;15.404;2023-07-16T14:09:32;7.97;;;5.78;;
80536;SDS011;69867;47.074;15.404;2023-07-16T14:11:58;6.60;;;5.60;;
80536;SDS011;69867;47.074;15.404;2023-07-16T14:14:23;9.20;;;5.80;;
80536;SDS011;69867;47.074;15.404;2023-07-16T14:16:49;5.57;;;4.60;;
80536;SDS011;69867;47.074;15.404;2023-07-16T14:19:14;7.32;;;5.28;;
80536;SDS011;69867;47.074;15.404;2023-07-16T14:21:40;8.57;;;6.13;;
80536;SDS011;69867;47.074;15.404;2023-07-16T14:24:05;7.75;;;5.57;;
80536;SDS011;69867;47.074;15.404;2023-07-16T14:26:31;9.00;;;5.95;;
80536;SDS011;69867;47.074;15.404;2023-07-16T14:28:56;8.10;;;5.55;;
80536;SDS011;69867;47.074;15.404;2023-07-16T14:31:22;9.38;;;6.35;;
80536;SDS011;69867;47.074;15.404;2023-07-16T14:33:47;10.00;;;6.28;;
80536;SDS011;69867;47.074;15.404;2023-07-16T14:36:16;7.22;;;5.63;;